createdAt,value
2023-08-17T00:01:09.536Z,18.37
2023-08-17T00:03:36.105Z,18.34
2023-08-17T00:06:02.605Z,18.29
2023-08-17T00:08:29.135Z,18.27
2023-08-17T00:10:55.618Z,18.29
2023-08-17T00:13:22.126Z,18.30
2023-08-17T00:15:50.032Z,18.25
2023-08-17T00:18:16.647Z,18.25
2023-08-17T00:20:43.048Z,18.24
2023-08-17T00:23:09.645Z,18.23
2023-08-17T00:25:36.647Z,18.21
2023-08-17T00:28:03.399Z,18.18
2023-08-17T00:30:29.866Z,18.16
2023-08-17T00:32:56.288Z,18.15
2023-08-17T00:35:22.900Z,18.13
2023-08-17T00:37:49.760Z,18.10
2023-08-17T00:40:16.207Z,18.12
2023-08-17T00:42:42.822Z,18.10
2023-08-17T00:45:09.899Z,18.07
2023-08-17T00:47:36.849Z,18.05
2023-08-17T00:50:03.739Z,18.03
2023-08-17T00:52:33.227Z,18.02
2023-08-17T00:55:01.657Z,17.97
2023-08-17T00:57:29.521Z,17.97
2023-08-17T01:00:04.703Z,17.95
2023-08-17T01:02:32.822Z,17.95
2023-08-17T01:04:59.679Z,17.96
2023-08-17T01:07:26.443Z,17.90
2023-08-17T01:09:53.417Z,17.85
2023-08-17T01:12:33.069Z,17.82
2023-08-17T01:14:59.463Z,17.84
2023-08-17T01:17:31.403Z,17.85
2023-08-17T01:19:59.944Z,17.84
2023-08-17T01:22:28.485Z,17.85
2023-08-17T01:25:00.566Z,17.85
2023-08-17T01:27:30.712Z,17.85
2023-08-17T01:29:57.472Z,17.85
2023-08-17T01:32:28.579Z,17.85
2023-08-17T01:35:05.454Z,17.82
2023-08-17T01:37:36.729Z,17.79
2023-08-17T01:40:06.172Z,17.78
2023-08-17T01:42:33.013Z,17.79
2023-08-17T01:44:59.725Z,17.74
2023-08-17T01:47:26.889Z,17.71
2023-08-17T01:49:54.031Z,17.72
2023-08-17T01:52:20.694Z,17.67
2023-08-17T01:54:47.253Z,17.67
2023-08-17T01:57:13.751Z,17.66
2023-08-17T01:59:40.300Z,17.62
2023-08-17T02:02:07.112Z,17.63
2023-08-17T02:04:33.580Z,17.63
2023-08-17T02:07:00.163Z,17.58
2023-08-17T02:09:26.798Z,17.56
2023-08-17T02:11:53.273Z,17.52
2023-08-17T02:14:19.834Z,17.52
2023-08-17T02:16:46.317Z,17.50
2023-08-17T02:19:12.787Z,17.45
2023-08-17T02:21:39.288Z,17.46
2023-08-17T02:24:06.185Z,17.44
2023-08-17T02:26:34.414Z,17.43
2023-08-17T02:29:00.946Z,17.38
2023-08-17T02:31:27.401Z,17.32
2023-08-17T02:33:54.260Z,17.32
2023-08-17T02:36:20.756Z,17.33
2023-08-17T02:38:47.534Z,17.33
2023-08-17T02:41:13.999Z,17.31
2023-08-17T02:43:40.688Z,17.31
2023-08-17T02:46:08.498Z,17.30
2023-08-17T02:48:35.211Z,17.29
2023-08-17T02:51:01.803Z,17.29
2023-08-17T02:53:28.433Z,17.28
2023-08-17T02:55:54.960Z,17.26
2023-08-17T02:58:21.528Z,17.25
2023-08-17T03:00:48.003Z,17.23
2023-08-17T03:03:17.070Z,17.23
2023-08-17T03:05:43.585Z,17.23
2023-08-17T03:08:10.228Z,17.25
2023-08-17T03:10:38.533Z,17.23
2023-08-17T03:13:05.156Z,17.18
2023-08-17T03:15:31.789Z,17.19
2023-08-17T03:17:58.335Z,17.23
2023-08-17T03:20:24.936Z,17.23
2023-08-17T03:22:51.393Z,17.24
2023-08-17T03:25:19.906Z,17.27
2023-08-17T03:27:46.755Z,17.24
2023-08-17T03:30:13.203Z,17.21
2023-08-17T03:32:39.632Z,17.20
2023-08-17T03:35:06.725Z,17.17
2023-08-17T03:37:33.092Z,17.17
2023-08-17T03:40:01.515Z,17.12
2023-08-17T03:42:28.196Z,17.09
2023-08-17T03:44:55.855Z,17.08
2023-08-17T03:47:22.402Z,17.06
2023-08-17T03:49:48.854Z,17.04
2023-08-17T03:52:15.290Z,17.03
2023-08-17T03:54:41.724Z,17.01
2023-08-17T03:57:08.246Z,17.02
2023-08-17T03:59:34.723Z,16.98
2023-08-17T04:02:01.364Z,17.00
2023-08-17T04:04:28.592Z,16.98
2023-08-17T04:06:55.201Z,16.98
2023-08-17T04:09:21.788Z,16.97
2023-08-17T04:11:48.236Z,16.98
2023-08-17T04:14:15.256Z,16.98
2023-08-17T04:16:41.671Z,16.97
2023-08-17T04:19:08.764Z,16.93
2023-08-17T04:21:35.206Z,16.97
2023-08-17T04:24:01.635Z,16.97
2023-08-17T04:26:28.122Z,16.95
2023-08-17T04:28:54.725Z,16.93
2023-08-17T04:31:21.190Z,16.93
2023-08-17T04:33:47.740Z,16.94
2023-08-17T04:36:14.436Z,16.91
2023-08-17T04:38:40.955Z,16.92
2023-08-17T04:41:07.665Z,16.90
2023-08-17T04:43:34.114Z,16.93
2023-08-17T04:46:00.586Z,16.95
2023-08-17T04:48:27.332Z,16.96
2023-08-17T04:50:53.880Z,16.96
2023-08-17T04:53:20.310Z,16.97
2023-08-17T04:55:46.790Z,16.98
2023-08-17T04:58:13.343Z,17.00
2023-08-17T05:00:39.820Z,16.98
2023-08-17T05:03:09.629Z,16.97
2023-08-17T05:05:38.399Z,16.98
2023-08-17T05:08:05.283Z,16.99
2023-08-17T05:10:31.740Z,16.98
2023-08-17T05:12:58.325Z,17.00
2023-08-17T05:15:25.037Z,16.99
2023-08-17T05:17:51.677Z,16.96
2023-08-17T05:20:18.169Z,16.94
2023-08-17T05:22:44.681Z,16.93
2023-08-17T05:25:11.189Z,16.93
2023-08-17T05:27:37.804Z,16.96
2023-08-17T05:30:04.837Z,16.95
2023-08-17T05:32:31.400Z,16.98
2023-08-17T05:34:58.441Z,16.98
2023-08-17T05:37:25.017Z,17.05
2023-08-17T05:39:51.739Z,17.04
2023-08-17T05:42:18.236Z,17.09
2023-08-17T05:44:45.535Z,17.12
2023-08-17T05:47:12.141Z,17.15
2023-08-17T05:49:39.195Z,17.20
2023-08-17T05:52:06.044Z,17.20
2023-08-17T05:54:32.520Z,17.17
2023-08-17T05:56:59.100Z,17.19
2023-08-17T05:59:25.684Z,17.24
2023-08-17T06:01:52.230Z,17.31
2023-08-17T06:04:18.725Z,17.32
2023-08-17T06:06:45.273Z,17.34
2023-08-17T06:09:11.946Z,17.37
2023-08-17T06:11:38.721Z,17.35
2023-08-17T06:14:05.577Z,17.35
2023-08-17T06:16:32.078Z,17.36
2023-08-17T06:18:58.581Z,17.34
2023-08-17T06:21:25.136Z,17.32
2023-08-17T06:23:51.651Z,17.34
2023-08-17T06:26:18.097Z,17.41
2023-08-17T06:28:44.812Z,17.47
2023-08-17T06:31:11.314Z,17.54
2023-08-17T06:33:37.778Z,17.57
2023-08-17T06:36:04.494Z,17.59
2023-08-17T06:38:31.106Z,17.61
2023-08-17T06:40:57.529Z,17.66
2023-08-17T06:43:23.920Z,17.71
2023-08-17T06:45:50.504Z,17.73
2023-08-17T06:48:17.021Z,17.72
2023-08-17T06:50:43.657Z,17.72
2023-08-17T06:53:10.396Z,17.73
2023-08-17T06:55:36.893Z,17.78
2023-08-17T06:58:03.545Z,17.79
2023-08-17T07:00:30.406Z,17.81
2023-08-17T07:02:59.579Z,17.84
2023-08-17T07:05:27.700Z,17.87
2023-08-17T07:07:54.270Z,17.84
2023-08-17T07:10:20.986Z,17.88
2023-08-17T07:12:47.487Z,17.90
2023-08-17T07:15:14.006Z,17.93
2023-08-17T07:17:40.694Z,17.90
2023-08-17T07:20:16.367Z,17.93
2023-08-17T07:22:43.917Z,17.95
2023-08-17T07:25:10.588Z,18.01
2023-08-17T07:27:37.441Z,18.05
2023-08-17T07:30:04.293Z,18.12
2023-08-17T07:32:30.749Z,18.22
2023-08-17T07:34:57.208Z,18.28
2023-08-17T07:37:23.810Z,18.38
2023-08-17T07:39:50.473Z,18.48
2023-08-17T07:42:16.941Z,18.68
2023-08-17T07:44:43.487Z,18.84
2023-08-17T07:47:10.078Z,19.02
2023-08-17T07:49:36.569Z,19.17
2023-08-17T07:52:03.129Z,19.25
2023-08-17T07:54:29.623Z,19.39
2023-08-17T07:56:56.144Z,19.44
2023-08-17T07:59:22.596Z,19.44
2023-08-17T08:01:49.246Z,19.44
2023-08-17T08:04:15.855Z,19.52
2023-08-17T08:06:42.935Z,19.51
2023-08-17T08:09:09.565Z,19.52
2023-08-17T08:11:36.080Z,19.63
2023-08-17T08:14:02.541Z,19.77
2023-08-17T08:16:31.681Z,19.86
2023-08-17T08:18:59.134Z,19.92
2023-08-17T08:21:25.794Z,19.86
2023-08-17T08:23:52.267Z,19.82
2023-08-17T08:26:18.761Z,19.75
2023-08-17T08:28:46.497Z,19.76
2023-08-17T08:31:13.046Z,19.88
2023-08-17T08:33:39.620Z,19.94
2023-08-17T08:36:07.316Z,19.95
2023-08-17T08:38:34.092Z,19.85
2023-08-17T08:41:01.684Z,19.77
2023-08-17T08:43:28.180Z,19.71
2023-08-17T08:45:56.102Z,19.68
2023-08-17T08:48:24.230Z,19.66
2023-08-17T08:50:51.309Z,19.63
2023-08-17T08:53:22.394Z,19.64
2023-08-17T08:55:59.575Z,19.69
2023-08-17T08:58:26.693Z,19.76
2023-08-17T09:00:53.497Z,19.77
2023-08-17T09:03:21.659Z,19.65
2023-08-17T09:05:50.244Z,19.56
2023-08-17T09:08:24.253Z,19.56
2023-08-17T09:10:50.737Z,19.59
2023-08-17T09:13:17.385Z,19.72
2023-08-17T09:15:44.007Z,19.81
2023-08-17T09:18:13.737Z,19.92
2023-08-17T09:20:47.247Z,20.08
2023-08-17T09:23:16.858Z,20.16
2023-08-17T09:25:45.416Z,20.19
2023-08-17T09:28:15.641Z,20.27
2023-08-17T09:30:54.697Z,20.29
2023-08-17T09:33:25.013Z,20.31
2023-08-17T09:35:58.527Z,20.31
2023-08-17T09:38:26.024Z,20.32
2023-08-17T09:40:53.133Z,20.34
2023-08-17T09:43:22.208Z,20.30
2023-08-17T09:45:52.818Z,20.28
2023-08-17T09:48:20.426Z,20.26
2023-08-17T09:50:48.193Z,20.21
2023-08-17T09:53:16.644Z,20.17
2023-08-17T09:55:44.402Z,20.17
2023-08-17T09:58:16.029Z,20.16
2023-08-17T10:00:51.855Z,20.16
2023-08-17T10:03:20.738Z,20.15
2023-08-17T10:05:56.034Z,20.13
2023-08-17T10:08:24.169Z,20.11
2023-08-17T10:10:56.584Z,20.11
2023-08-17T10:13:36.009Z,20.14
2023-08-17T10:16:30.056Z,20.15
2023-08-17T10:19:11.466Z,20.10
2023-08-17T10:21:44.698Z,20.07
2023-08-17T10:24:12.883Z,20.08
2023-08-17T10:26:39.832Z,20.12
2023-08-17T10:29:15.330Z,20.14
2023-08-17T10:31:46.450Z,20.17
2023-08-17T10:34:14.575Z,20.17
2023-08-17T10:36:42.177Z,20.23
2023-08-17T10:39:29.137Z,20.27
2023-08-17T10:41:58.072Z,20.28
2023-08-17T10:44:42.695Z,20.27
2023-08-17T10:47:24.670Z,20.29
2023-08-17T10:50:05.094Z,20.25
2023-08-17T10:52:33.989Z,20.19
2023-08-17T10:55:02.388Z,20.18
2023-08-17T10:57:34.508Z,20.24
2023-08-17T11:02:56.463Z,20.22
2023-08-17T11:05:38.860Z,20.23
2023-08-17T11:08:14.859Z,20.24
2023-08-17T11:10:41.533Z,20.29
2023-08-17T11:13:08.443Z,20.37
2023-08-17T11:15:39.574Z,20.44
2023-08-17T11:18:10.491Z,20.49
2023-08-17T11:20:39.609Z,20.52
2023-08-17T11:23:07.570Z,20.50
2023-08-17T11:25:35.389Z,20.41
2023-08-17T11:28:02.862Z,20.41
2023-08-17T11:30:30.059Z,20.41
2023-08-17T11:32:57.877Z,20.45
2023-08-17T11:35:24.614Z,20.41
2023-08-17T11:37:51.253Z,20.36
2023-08-17T11:40:18.224Z,20.32
2023-08-17T11:42:46.724Z,20.31
2023-08-17T11:45:13.837Z,20.30
2023-08-17T11:47:41.860Z,20.33
2023-08-17T11:50:20.452Z,20.39
2023-08-17T11:52:48.157Z,20.45
2023-08-17T11:55:18.856Z,20.53
2023-08-17T11:57:45.931Z,20.60
2023-08-17T12:00:17.686Z,20.68
2023-08-17T12:02:46.398Z,20.65
2023-08-17T12:05:12.935Z,20.59
2023-08-17T12:07:39.650Z,20.56
2023-08-17T12:10:06.964Z,20.53
2023-08-17T12:12:38.007Z,20.52
2023-08-17T12:15:05.377Z,20.46
2023-08-17T12:17:32.012Z,20.42
2023-08-17T12:20:00.349Z,20.41
2023-08-17T12:22:27.545Z,20.39
2023-08-17T12:24:54.525Z,20.31
2023-08-17T12:27:24.881Z,20.34
2023-08-17T12:29:52.439Z,20.34
2023-08-17T12:32:20.927Z,20.40
2023-08-17T12:34:49.635Z,20.43
2023-08-17T12:37:21.894Z,20.45
2023-08-17T12:39:49.531Z,20.43
2023-08-17T12:42:16.546Z,20.40
2023-08-17T12:44:42.949Z,20.38
2023-08-17T12:47:10.505Z,20.32
2023-08-17T12:49:39.443Z,20.27
2023-08-17T12:52:06.420Z,20.29
2023-08-17T12:54:32.882Z,20.29
2023-08-17T12:57:00.612Z,20.27
2023-08-17T12:59:28.385Z,20.25
2023-08-17T13:01:54.813Z,20.24
2023-08-17T13:04:21.238Z,20.23
2023-08-17T13:06:50.009Z,20.22
2023-08-17T13:09:17.036Z,20.24
2023-08-17T13:11:43.505Z,20.29
2023-08-17T13:14:10.027Z,20.27
2023-08-17T13:16:36.613Z,20.23
2023-08-17T13:19:03.649Z,20.24
2023-08-17T13:21:30.008Z,20.22
2023-08-17T13:23:56.487Z,20.22
2023-08-17T13:26:26.187Z,20.24
2023-08-17T13:28:52.729Z,20.22
2023-08-17T13:31:24.872Z,20.21
2023-08-17T13:33:52.197Z,20.23
2023-08-17T13:36:19.315Z,20.26
2023-08-17T13:38:46.875Z,20.26
2023-08-17T13:41:13.934Z,20.25
2023-08-17T13:43:41.347Z,20.24
2023-08-17T13:46:08.204Z,20.27
2023-08-17T13:48:34.995Z,20.31
2023-08-17T13:51:01.440Z,20.27
2023-08-17T13:53:27.851Z,20.27
2023-08-17T13:55:54.963Z,20.29
2023-08-17T13:58:21.565Z,20.29
2023-08-17T14:00:48.021Z,20.32
2023-08-17T14:03:14.544Z,20.40
2023-08-17T14:05:41.611Z,20.46
2023-08-17T14:08:08.758Z,20.49
2023-08-17T14:10:40.170Z,20.47
2023-08-17T14:13:07.264Z,20.46
2023-08-17T14:15:33.781Z,20.51
2023-08-17T14:18:00.385Z,20.54
2023-08-17T14:20:27.964Z,20.57
2023-08-17T14:22:54.557Z,20.59
2023-08-17T14:25:21.025Z,20.62
2023-08-17T14:27:47.490Z,20.60
2023-08-17T14:30:14.293Z,20.58
2023-08-17T14:32:40.718Z,20.55
2023-08-17T14:35:12.315Z,20.53
2023-08-17T14:37:39.592Z,20.51
2023-08-17T14:40:06.703Z,20.50
2023-08-17T14:42:33.266Z,20.52
2023-08-17T14:44:59.721Z,20.54
2023-08-17T14:47:26.804Z,20.61
2023-08-17T14:49:54.516Z,20.69
2023-08-17T14:52:21.020Z,20.76
2023-08-17T14:54:47.457Z,20.75
2023-08-17T14:57:14.015Z,20.73
2023-08-17T14:59:40.395Z,20.68
2023-08-17T15:02:06.891Z,20.63
2023-08-17T15:04:34.164Z,20.59
2023-08-17T15:07:00.609Z,20.59
2023-08-17T15:09:27.127Z,20.59
2023-08-17T15:11:53.555Z,20.57
2023-08-17T15:14:19.975Z,20.60
2023-08-17T15:16:46.377Z,20.59
2023-08-17T15:19:14.181Z,20.53
2023-08-17T15:21:42.059Z,20.53
2023-08-17T15:24:09.879Z,20.56
2023-08-17T15:26:36.480Z,20.57
2023-08-17T15:29:03.274Z,20.60
2023-08-17T15:31:29.804Z,20.61
2023-08-17T15:33:56.322Z,20.66
2023-08-17T15:36:24.876Z,20.75
2023-08-17T15:38:52.055Z,20.79
2023-08-17T15:41:19.660Z,20.78
2023-08-17T15:43:46.078Z,20.75
2023-08-17T15:46:12.683Z,20.71
2023-08-17T15:48:39.349Z,20.65
2023-08-17T15:51:05.815Z,20.62
2023-08-17T15:53:32.292Z,20.55
2023-08-17T15:55:58.744Z,20.48
2023-08-17T15:58:25.242Z,20.43
2023-08-17T16:00:51.762Z,20.41
2023-08-17T16:03:18.277Z,20.36
2023-08-17T16:05:44.745Z,20.31
2023-08-17T16:08:11.694Z,20.32
2023-08-17T16:10:38.175Z,20.30
2023-08-17T16:13:04.781Z,20.28
2023-08-17T16:15:31.220Z,20.22
2023-08-17T16:18:01.213Z,20.20
2023-08-17T16:20:30.643Z,20.19
2023-08-17T16:22:57.216Z,20.17
2023-08-17T16:25:23.678Z,20.13
2023-08-17T16:27:50.196Z,20.09
2023-08-17T16:30:16.651Z,20.05
2023-08-17T16:32:43.275Z,20.06
2023-08-17T16:35:10.970Z,20.04
2023-08-17T16:37:40.730Z,20.02
2023-08-17T16:40:15.099Z,20.01
2023-08-17T16:42:47.836Z,20.00
2023-08-17T16:45:16.141Z,19.96
2023-08-17T16:47:43.115Z,19.92
2023-08-17T16:50:09.790Z,19.92
2023-08-17T16:52:39.797Z,19.90
2023-08-17T16:55:07.007Z,19.90
2023-08-17T16:57:34.217Z,19.89
2023-08-17T17:00:04.451Z,19.85
2023-08-17T17:02:33.146Z,19.80
2023-08-17T17:04:59.637Z,19.78
2023-08-17T17:07:26.443Z,19.78
2023-08-17T17:09:52.913Z,19.77
2023-08-17T17:12:19.446Z,19.77
2023-08-17T17:14:45.946Z,19.76
2023-08-17T17:17:12.464Z,19.75
2023-08-17T17:19:38.904Z,19.76
2023-08-17T17:22:05.529Z,19.75
2023-08-17T17:24:32.595Z,19.75
2023-08-17T17:26:59.144Z,19.72
2023-08-17T17:29:25.604Z,19.71
2023-08-17T17:31:52.928Z,19.70
2023-08-17T17:34:19.568Z,19.66
2023-08-17T17:36:48.464Z,19.64
2023-08-17T17:39:14.895Z,19.61
2023-08-17T17:41:41.518Z,19.58
2023-08-17T17:44:07.967Z,19.55
2023-08-17T17:46:34.802Z,19.54
2023-08-17T17:49:01.342Z,19.54
2023-08-17T17:51:27.794Z,19.54
2023-08-17T17:53:55.312Z,19.53
2023-08-17T17:56:45.795Z,19.53
2023-08-17T17:59:12.587Z,19.50
2023-08-17T18:01:39.722Z,19.49
2023-08-17T18:04:06.873Z,19.49
2023-08-17T18:06:35.262Z,19.48
2023-08-17T18:09:02.131Z,19.45
2023-08-17T18:11:28.677Z,19.41
2023-08-17T18:13:55.164Z,19.42
2023-08-17T18:16:21.678Z,19.41
2023-08-17T18:18:48.453Z,19.42
2023-08-17T18:21:14.888Z,19.39
2023-08-17T18:23:41.274Z,19.37
2023-08-17T18:26:07.884Z,19.37
2023-08-17T18:28:34.295Z,19.39
2023-08-17T18:31:00.950Z,19.39
2023-08-17T18:33:27.504Z,19.36
2023-08-17T18:35:55.208Z,19.35
2023-08-17T18:38:23.343Z,19.33
2023-08-17T18:40:52.379Z,19.32
2023-08-17T18:43:20.558Z,19.34
2023-08-17T18:45:47.130Z,19.30
2023-08-17T18:48:13.992Z,19.31
2023-08-17T18:50:40.709Z,19.31
2023-08-17T18:53:08.212Z,19.28
2023-08-17T18:55:35.083Z,19.29
2023-08-17T18:58:01.838Z,19.30
2023-08-17T19:00:28.633Z,19.29
2023-08-17T19:02:55.264Z,19.28
2023-08-17T19:05:21.962Z,19.29
2023-08-17T19:07:48.668Z,19.30
2023-08-17T19:10:16.183Z,19.28
2023-08-17T19:12:43.147Z,19.27
2023-08-17T19:15:10.185Z,19.26
2023-08-17T19:17:37.019Z,19.25
2023-08-17T19:20:04.019Z,19.24
2023-08-17T19:22:30.459Z,19.22
2023-08-17T19:24:57.130Z,19.21
2023-08-17T19:27:23.697Z,19.19
2023-08-17T19:29:50.418Z,19.20
2023-08-17T19:32:18.557Z,19.20
2023-08-17T19:34:45.021Z,19.20
2023-08-17T19:37:11.599Z,19.19
2023-08-17T19:39:38.114Z,19.20
2023-08-17T19:42:04.993Z,19.19
2023-08-17T19:44:31.615Z,19.17
2023-08-17T19:46:58.364Z,19.15
2023-08-17T19:49:27.743Z,19.16
2023-08-17T19:51:55.310Z,19.14
2023-08-17T19:54:21.795Z,19.14
2023-08-17T19:56:48.341Z,19.13
2023-08-17T19:59:15.083Z,19.12
2023-08-17T20:01:41.760Z,19.12
2023-08-17T20:04:11.837Z,19.13
2023-08-17T20:06:38.509Z,19.13
2023-08-17T20:09:05.552Z,19.14
2023-08-17T20:11:32.000Z,19.13
2023-08-17T20:13:58.556Z,19.11
2023-08-17T20:16:25.079Z,19.08
2023-08-17T20:18:53.178Z,19.07
2023-08-17T20:21:19.887Z,19.06
2023-08-17T20:23:46.802Z,19.06
2023-08-17T20:26:13.473Z,19.06
2023-08-17T20:28:40.248Z,19.07
2023-08-17T20:31:07.196Z,19.06
2023-08-17T20:33:34.212Z,19.06
2023-08-17T20:36:00.739Z,19.06
2023-08-17T20:38:27.426Z,19.04
2023-08-17T20:40:54.466Z,19.04
2023-08-17T20:43:20.947Z,19.02
2023-08-17T20:45:47.574Z,19.02
2023-08-17T20:48:14.457Z,19.02
2023-08-17T20:50:41.629Z,19.01
2023-08-17T20:53:09.946Z,18.99
2023-08-17T20:55:39.560Z,18.98
2023-08-17T20:58:06.828Z,18.98
2023-08-17T21:00:36.639Z,18.98
2023-08-17T21:03:04.974Z,18.96
2023-08-17T21:05:32.637Z,18.97
2023-08-17T21:07:59.973Z,18.96
2023-08-17T21:10:27.007Z,18.94
2023-08-17T21:12:53.477Z,18.90
2023-08-17T21:15:19.964Z,18.91
2023-08-17T21:17:47.054Z,18.89
2023-08-17T21:20:14.333Z,18.90
2023-08-17T21:22:50.313Z,18.89
2023-08-17T21:25:18.137Z,18.91
2023-08-17T21:27:44.744Z,18.91
2023-08-17T21:30:11.427Z,18.91
2023-08-17T21:32:37.973Z,18.90
2023-08-17T21:35:04.873Z,18.90
2023-08-17T21:37:31.802Z,18.90
2023-08-17T21:39:58.578Z,18.88
2023-08-17T21:42:25.078Z,18.86
2023-08-17T21:44:52.642Z,18.86
2023-08-17T21:47:19.260Z,18.83
2023-08-17T21:49:48.063Z,18.85
2023-08-17T21:52:16.204Z,18.85
2023-08-17T21:54:42.954Z,18.81
2023-08-17T21:57:10.554Z,18.81
2023-08-17T21:59:36.995Z,18.78
2023-08-17T22:02:04.082Z,18.75
2023-08-17T22:04:33.640Z,18.70
2023-08-17T22:07:02.408Z,18.66
2023-08-17T22:09:29.845Z,18.64
2023-08-17T22:11:56.840Z,18.63
2023-08-17T22:14:23.184Z,18.64
2023-08-17T22:16:49.607Z,18.63
2023-08-17T22:19:16.200Z,18.62
2023-08-17T22:21:43.221Z,18.59
2023-08-17T22:24:09.727Z,18.57
2023-08-17T22:26:36.495Z,18.58
2023-08-17T22:29:04.426Z,18.57
2023-08-17T22:31:32.180Z,18.56
2023-08-17T22:33:58.653Z,18.55
2023-08-17T22:36:25.377Z,18.53
2023-08-17T22:38:51.802Z,18.52
2023-08-17T22:41:18.222Z,18.51
2023-08-17T22:43:44.693Z,18.47
2023-08-17T22:46:11.421Z,18.47
2023-08-17T22:48:37.984Z,18.47
2023-08-17T22:51:04.471Z,18.42
2023-08-17T22:53:31.178Z,18.40
2023-08-17T22:55:57.803Z,18.45
2023-08-17T22:58:24.311Z,18.43
2023-08-17T23:00:50.775Z,18.42
2023-08-17T23:03:17.419Z,18.41
2023-08-17T23:05:45.263Z,18.39
2023-08-17T23:08:11.678Z,18.37
2023-08-17T23:10:38.088Z,18.36
2023-08-17T23:13:04.763Z,18.37
2023-08-17T23:15:31.190Z,18.36
2023-08-17T23:17:57.949Z,18.36
2023-08-17T23:20:24.411Z,18.36
2023-08-17T23:22:50.875Z,18.36
2023-08-17T23:25:17.412Z,18.34
2023-08-17T23:27:43.991Z,18.33
2023-08-17T23:30:12.286Z,18.32
2023-08-17T23:32:38.769Z,18.30
2023-08-17T23:35:05.824Z,18.29
2023-08-17T23:37:32.377Z,18.26
2023-08-17T23:39:58.930Z,18.25
2023-08-17T23:42:25.372Z,18.25
2023-08-17T23:44:51.841Z,18.24
2023-08-17T23:47:18.320Z,18.24
2023-08-17T23:49:45.533Z,18.21
2023-08-17T23:52:12.404Z,18.19
2023-08-17T23:54:39.117Z,18.19
2023-08-17T23:57:05.859Z,18.17
2023-08-17T23:59:32.290Z,18.15
